Latest Weather Observations for Moranbah Airport

IDQ60801

Issued at 9:35 am EST Friday 25 April 2014 (issued every 30 minutes, with the page automatically refreshed every 10 minutes)

About weather observations | Map of weather stations | Latest weather observations for QLD | Other Formats
Station Details ID: 034035 Name: MORANBAH AIRPORT Lat: -22.06 Lon: 148.08 Height: 232.2 m
Data from the previous 72 hours. | See also: Recent months at Moranbah Airport
Date/Time
EST
Temp
°C
App
Temp
°C
Dew
Point
Rel
Hum
%
Delta-T
°C
Wind Press
QNH
hPa
Press
MSL
hPa
Rain
since 9 am
mm
Dir
 
Spd
km/h
Gust
km/h
Spd
kts
Gust
kts
25/09:30am 25.5 25.0 19.2 68 4.1 SE 20 28 11 15 1017.4 - 0.0
25/09:07am 23.6 22.6 18.9 75 3.0 SE 22 28 12 15 1017.5 - 0.0
25/09:00am 23.4 22.5 19.1 77 2.8 SE 22 28 12 15 1017.6 1016.5 0.0
25/08:30am 22.6 22.0 18.8 79 2.4 SE 20 26 11 14 1017.3 - 0.0
25/08:00am 21.6 22.9 19.3 87 1.5 SE 11 15 6 8 1017.1 - 0.0
25/07:34am 20.7 22.1 18.6 88 1.3 SSE 9 11 5 6 1016.9 - 0.0
25/07:30am 20.7 22.2 18.8 89 1.2 SSE 9 11 5 6 1016.7 - 0.0
25/07:00am 18.9 20.3 17.9 94 0.6 SE 7 9 4 5 1016.1 - 0.0
25/06:30am 18.7 19.2 17.5 93 0.7 SE 11 13 6 7 1015.7 - 0.0
25/06:00am 18.9 19.5 17.7 93 0.7 SE 11 11 6 6 1015.3 1014.3 0.0
25/05:30am 19.3 20.8 18.0 92 0.8 SE 7 9 4 5 1014.9 - 0.0
25/05:00am 19.5 21.6 18.0 91 0.9 SE 4 6 2 3 1014.6 - 0.0
25/04:30am 19.6 21.3 18.1 91 0.9 SE 6 7 3 4 1014.3 - 0.0
25/04:00am 19.7 21.5 18.2 91 0.9 SE 6 7 3 4 1014.2 - 0.0
25/03:30am 19.5 20.3 18.2 92 0.8 SSE 11 13 6 7 1014.2 - 0.0
25/03:00am 19.1 20.2 17.9 93 0.7 SSE 9 11 5 6 1014.2 1013.1 0.0
25/02:30am 18.9 19.5 17.7 93 0.7 SE 11 13 6 7 1014.4 - 0.0
25/02:00am 19.1 19.7 17.8 92 0.8 SSE 11 13 6 7 1014.7 - 0.0
25/01:30am 19.4 19.8 18.1 92 0.8 SSE 13 15 7 8 1014.7 - 0.0
25/01:00am 19.6 21.0 17.7 89 1.2 SSE 7 7 4 4 1015.2 - 0.0
25/12:30am 20.2 21.4 18.3 89 1.2 SSE 9 11 5 6 1015.4 - 0.0
25/12:00am 20.3 22.0 18.4 89 1.2 ESE 7 9 4 5 1015.6 1014.6 0.0
 
Date/Time
EST
Temp
°C
App
Temp
°C
Dew
Point
Rel
Hum
%
Delta-T
°C
Wind Press
QNH
hPa
Press
MSL
hPa
Rain
since 9 am
mm
Dir
 
Spd
km/h
Gust
km/h
Spd
kts
Gust
kts
24/11:30pm 20.2 22.0 18.3 89 1.2 E 6 9 3 5 1015.8 - 0.0
24/11:00pm 20.6 23.6 18.5 88 1.3 CALM 0 0 0 0 1015.7 - 0.0
24/10:30pm 20.8 22.5 18.6 87 1.4 ENE 7 9 4 5 1015.9 - 0.0
24/10:00pm 20.7 22.3 18.3 86 1.5 ENE 7 7 4 4 1016.0 - 0.0
24/09:30pm 21.6 23.0 18.6 83 1.9 NE 9 11 5 6 1015.9 - 0.0
24/09:00pm 22.6 23.1 19.2 81 2.2 NE 15 20 8 11 1015.9 1014.9 0.0
24/08:30pm 22.7 24.9 19.3 81 2.2 NE 6 9 3 5 1015.5 - 0.0
24/08:00pm 23.0 24.6 19.2 79 2.4 ENE 9 13 5 7 1015.1 - 0.0
24/07:30pm 23.4 25.3 18.9 76 2.9 NNE 7 11 4 6 1014.6 - 0.0
24/07:00pm 24.0 25.2 19.1 74 3.2 NE 11 13 6 7 1014.2 - 0.0
24/06:30pm 24.6 25.7 18.8 70 3.7 NNE 11 15 6 8 1014.1 - 0.0
24/06:00pm 25.1 25.3 15.7 56 5.8 ENE 9 13 5 7 1013.7 1012.6 0.0
24/05:30pm 26.5 26.0 14.9 49 7.1 E 11 13 6 7 1013.3 - 0.0
24/05:00pm 27.6 27.0 14.6 45 7.9 ESE 11 13 6 7 1012.9 - 0.0
24/04:30pm 28.0 26.8 13.9 42 8.5 ESE 13 17 7 9 1012.6 - 0.0
24/04:00pm 28.3 26.1 13.4 40 8.9 SE 17 22 9 12 1012.5 - 0.0
24/03:30pm 29.1 27.7 14.5 41 8.9 SE 15 22 8 12 1012.5 - 0.0
24/03:00pm 28.1 25.7 14.3 42 8.4 SE 20 28 11 15 1012.7 1011.6 0.0
24/02:30pm 28.6 27.3 14.8 43 8.4 SE 15 24 8 13 1012.8 - 0.0
24/02:00pm 28.7 27.4 15.9 45 8.0 SSE 17 28 9 15 1013.1 - 0.0
24/01:30pm 27.4 26.2 16.1 50 7.0 SE 17 24 9 13 1013.4 - 0.0
24/01:00pm 28.0 28.1 17.5 52 6.7 ESE 13 22 7 12 1014.0 - 0.0
24/12:30pm 27.1 26.6 17.8 56 5.9 ESE 17 24 9 13 1014.5 - 0.0
24/12:00pm 27.0 27.0 18.0 58 5.7 E 15 20 8 11 1015.0 1014.0 0.0
24/11:30am 26.2 25.8 18.1 61 5.2 ESE 17 24 9 13 1015.6 - 0.0
24/11:00am 25.7 25.7 18.9 66 4.4 ESE 17 26 9 14 1016.3 - 0.0
24/10:35am 25.3 25.1 19.4 70 3.8 E 19 28 10 15 1016.4 - 0.0
24/10:30am 24.8 24.6 19.4 72 3.5 ESE 19 28 10 15 1016.5 - 0.0
24/10:00am 23.7 23.5 19.4 77 2.8 ESE 19 24 10 13 1016.8 - 0.0
24/09:30am 22.5 22.3 19.3 82 2.1 ESE 19 26 10 14 1016.7 - 0.0
24/09:05am 22.0 22.4 19.0 83 1.9 E 15 20 8 11 1017.4 - 0.0
24/09:00am 22.0 22.4 19.0 83 1.9 E 15 20 8 11 1017.3 1016.2 0.6
24/08:30am 22.3 22.0 19.1 82 2.0 ESE 19 24 10 13 1016.5 - 0.6
24/08:00am 20.9 21.7 19.0 89 1.2 ESE 13 17 7 9 1016.5 - 0.6
24/07:30am 20.4 21.1 18.9 91 1.0 SSE 13 15 7 8 1016.2 - 0.6
24/07:22am 20.4 21.6 19.1 92 0.8 ESE 11 15 6 8 1016.0 - 0.6
24/07:00am 19.9 20.6 18.9 94 0.6 SSE 13 17 7 9 1015.8 - 0.6
24/06:31am 19.7 20.1 18.9 95 0.5 SSE 15 19 8 10 1014.8 - 0.6
24/06:30am 19.7 20.1 18.9 95 0.5 SSE 15 19 8 10 1014.7 - 0.6
24/06:00am 19.8 19.4 18.8 94 0.6 ESE 19 22 10 12 1013.9 1012.8 0.6
24/05:30am 20.0 21.2 19.0 94 0.6 SE 11 13 6 7 1014.9 - 0.6
24/05:00am 19.9 20.6 18.9 94 0.6 ESE 13 17 7 9 1014.2 - 0.6
24/04:30am 19.8 20.5 18.8 94 0.6 SE 13 17 7 9 1014.2 - 0.6
24/04:00am 19.7 20.3 18.7 94 0.6 S 13 17 7 9 1014.5 - 0.6
24/03:30am 19.7 21.1 18.7 94 0.6 SE 9 13 5 7 1014.2 - 0.6
24/03:00am 19.7 20.6 18.5 93 0.8 E 11 15 6 8 1014.5 1013.4 0.6
24/02:30am 19.9 21.3 18.7 93 0.8 SE 9 11 5 6 1014.6 - 0.6
24/02:00am 19.8 21.7 18.5 92 0.8 ESE 6 9 3 5 1015.3 - 0.6
24/01:30am 20.1 22.8 18.6 91 0.9 ENE 2 7 1 4 1015.2 - 0.6
24/01:00am 20.3 21.4 18.8 91 0.9 ESE 11 17 6 9 1015.3 - 0.6
24/12:30am 20.3 20.4 19.1 93 0.8 SSE 17 19 9 10 1015.2 - 0.6
24/12:00am 20.4 21.2 19.1 92 0.8 SSE 13 15 7 8 1016.0 1015.0 0.6
 
Date/Time
EST
Temp
°C
App
Temp
°C
Dew
Point
Rel
Hum
%
Delta-T
°C
Wind Press
QNH
hPa
Press
MSL
hPa
Rain
since 9 am
mm
Dir
 
Spd
km/h
Gust
km/h
Spd
kts
Gust
kts
23/11:30pm 20.5 21.8 19.2 92 0.8 S 11 13 6 7 1016.1 - 0.6
23/11:00pm 20.7 22.7 19.2 91 1.0 SSE 7 9 4 5 1016.9 - 0.6
23/10:30pm 20.6 22.6 19.1 91 1.0 SE 7 9 4 5 1016.8 - 0.6
23/10:00pm 20.7 22.6 19.0 90 1.1 E 7 9 4 5 1017.1 - 0.6
23/09:30pm 20.7 21.8 18.8 89 1.2 ENE 11 13 6 7 1017.3 - 0.6
23/09:00pm 20.4 22.1 18.5 89 1.2 ENE 7 9 4 5 1017.6 1016.5 0.6
23/08:30pm 20.6 22.5 18.5 88 1.3 NE 6 7 3 4 1017.5 - 0.6
23/08:00pm 20.2 23.1 18.1 88 1.3 CALM 0 0 0 0 1017.2 - 0.6
23/07:30pm 20.3 22.3 17.9 86 1.5 E 4 7 2 4 1016.5 - 0.6
23/07:00pm 20.6 21.7 18.0 85 1.6 E 9 11 5 6 1016.1 - 0.6
23/06:30pm 21.4 22.3 18.4 83 1.9 ESE 11 13 6 7 1015.7 - 0.6
23/06:00pm 21.8 22.9 18.8 83 1.9 E 11 11 6 6 1015.5 1014.5 0.6
23/05:30pm 22.7 23.9 19.1 80 2.3 E 11 17 6 9 1015.2 - 0.6
23/05:00pm 23.9 24.7 19.0 74 3.1 ESE 13 19 7 10 1014.7 - 0.6
23/04:30pm 24.1 24.6 19.2 74 3.2 E 15 22 8 12 1014.6 - 0.6
23/04:00pm 23.9 24.9 19.4 76 2.9 ESE 13 17 7 9 1014.4 - 0.6
23/03:30pm 23.8 25.6 19.5 77 2.8 SE 9 13 5 7 1014.6 - 0.6
23/03:00pm 22.9 23.7 19.1 79 2.4 ESE 13 15 7 8 1014.4 1013.3 0.6
23/02:30pm 22.5 23.4 19.3 82 2.1 ESE 13 15 7 8 1014.6 - 0.6
23/02:00pm 22.4 24.4 19.2 82 2.1 E 7 9 4 5 1015.4 - 0.6
23/01:30pm 22.6 24.1 18.8 79 2.4 ESE 9 13 5 7 1015.7 - 0.4
23/01:00pm 22.9 24.6 18.0 74 3.1 SE 6 7 3 4 1016.6 - 0.0
23/12:30pm 23.1 24.1 17.8 72 3.3 E 9 11 5 6 1016.9 - 0.0
23/12:00pm 23.3 23.5 18.6 75 3.0 E 15 19 8 10 1016.9 1015.9 0.0
23/11:30am 23.2 23.1 17.9 72 3.3 E 15 19 8 10 1017.6 - 0.0
23/11:00am 23.2 22.9 18.3 74 3.1 E 17 22 9 12 1017.8 - 0.0
23/10:30am 22.6 22.4 18.4 77 2.7 E 17 20 9 11 1018.1 - 0.0
23/10:00am 21.7 21.9 18.5 82 2.0 E 15 20 8 11 1018.2 - 0.0
23/09:30am 20.8 20.1 18.2 85 1.6 ESE 19 22 10 12 1018.3 - 0.0
23/09:00am 20.3 20.2 17.9 86 1.5 SE 15 19 8 10 1018.1 1017.0 2.4
23/08:30am 19.8 19.3 17.8 88 1.2 ESE 17 24 9 13 1017.5 - 2.4
23/08:00am 19.5 19.5 18.0 91 0.9 SE 15 17 8 9 1017.4 - 2.4
23/07:30am 19.0 18.5 17.8 93 0.7 ESE 17 20 9 11 1017.3 - 2.4
23/07:00am 18.8 19.0 17.6 93 0.7 SE 13 17 7 9 1017.1 - 2.2
23/06:30am 18.9 19.9 17.7 93 0.7 SE 9 11 5 6 1017.2 - 2.0
23/06:00am 18.9 19.9 17.7 93 0.7 ESE 9 11 5 6 1016.9 1015.9 1.8
23/05:30am 18.9 19.6 17.9 94 0.6 SE 11 13 6 7 1016.7 - 1.8
23/05:00am 18.7 19.7 17.7 94 0.6 SE 9 11 5 6 1016.8 - 1.8
23/04:30am 19.0 19.3 18.0 94 0.6 SSE 13 15 7 8 1016.7 - 1.8
23/04:00am 19.2 19.6 18.2 94 0.6 SE 13 15 7 8 1016.3 - 1.6
23/03:30am 19.3 20.1 18.1 93 0.7 E 11 15 6 8 1016.3 - 1.6
23/03:00am 19.3 19.6 18.0 92 0.8 E 13 17 7 9 1016.5 1015.5 1.6
23/02:30am 19.4 20.5 17.9 91 0.9 SSE 9 11 5 6 1017.2 - 1.0
23/02:00am 19.7 20.4 18.0 90 1.1 SSE 11 13 6 7 1016.9 - 0.4
23/01:30am 20.0 21.0 17.8 87 1.4 SSE 9 11 5 6 1017.2 - 0.0
23/01:00am 20.2 21.5 17.6 85 1.6 SE 7 13 4 7 1017.5 - 0.0
23/12:30am 20.8 22.1 17.0 79 2.3 SE 6 9 3 5 1017.9 - 0.0
23/12:00am 21.0 20.9 17.0 78 2.5 SE 13 17 7 9 1017.8 1016.7 0.0
 
Date/Time
EST
Temp
°C
App
Temp
°C
Dew
Point
Rel
Hum
%
Delta-T
°C
Wind Press
QNH
hPa
Press
MSL
hPa
Rain
since 9 am
mm
Dir
 
Spd
km/h
Gust
km/h
Spd
kts
Gust
kts
22/11:30pm 21.8 22.5 17.0 74 3.0 S 9 15 5 8 1018.3 - 0.0
22/11:00pm 22.1 22.0 17.0 73 3.2 E 13 19 7 10 1017.4 - 0.0
22/10:30pm 22.0 21.8 16.7 72 3.3 E 13 15 7 8 1017.5 - 0.0
22/10:00pm 22.0 21.6 16.3 70 3.5 E 13 15 7 8 1017.7 - 0.0
22/09:30pm 22.3 23.0 16.1 68 3.8 ENE 7 9 4 5 1018.3 - 0.0
22/09:00pm 22.5 21.7 16.1 67 3.9 ENE 15 19 8 10 1017.7 1016.6 0.0
22/08:30pm 23.3 22.5 16.1 64 4.4 ENE 15 20 8 11 1018.2 - 0.0
22/08:00pm 23.3 22.2 16.4 65 4.2 ENE 17 22 9 12 1018.0 - 0.0
22/07:30pm 24.1 22.3 15.9 60 5.0 E 20 26 11 14 1017.5 - 0.0
22/07:00pm 24.6 23.4 16.1 59 5.2 ENE 17 24 9 13 1017.5 - 0.0
22/06:30pm 25.0 24.0 15.6 56 5.7 E 15 20 8 11 1017.1 - 0.0
22/06:00pm 25.2 24.8 15.2 54 6.1 E 11 13 6 7 1016.8 1015.8 0.0
22/05:30pm 25.8 24.5 14.9 51 6.6 ENE 15 20 8 11 1016.5 - 0.0
22/05:00pm 26.0 25.5 14.8 50 6.8 ENE 11 13 6 7 1016.2 - 0.0
22/04:30pm 27.1 25.2 15.1 47 7.3 E 19 24 10 13 1015.8 - 0.0
22/04:00pm 26.9 24.6 14.6 46 7.5 ENE 20 28 11 15 1015.7 - 0.0
22/03:30pm 27.1 24.9 14.8 47 7.5 E 20 26 11 14 1015.6 - 0.0
22/03:00pm 28.4 26.2 15.0 44 8.2 ENE 20 30 11 16 1015.5 1014.5 0.0
22/02:30pm 27.8 24.8 14.8 45 7.9 ENE 24 35 13 19 1015.9 - 0.0
22/02:00pm 27.8 25.2 14.8 45 7.9 E 22 30 12 16 1016.3 - 0.0
22/01:30pm 28.2 26.3 15.1 44 8.0 ENE 19 32 10 17 1016.5 - 0.0
22/01:00pm 27.8 25.7 15.1 46 7.8 ENE 20 28 11 15 1017.1 - 0.0
22/12:30pm 27.2 25.0 14.9 47 7.5 E 20 32 11 17 1017.6 - 0.0
22/12:00pm 26.5 24.1 14.3 47 7.3 E 20 33 11 18 1018.1 1017.0 0.0
22/11:30am 26.6 24.0 15.0 49 7.1 ESE 22 33 12 18 1018.7 - 0.0
22/11:00am 26.4 23.4 14.8 49 7.0 E 24 32 13 17 1019.2 - 0.0
22/10:30am 25.6 23.1 14.1 49 6.9 E 20 28 11 15 1019.7 - 0.0
22/10:00am 24.9 22.4 14.1 51 6.4 E 20 28 11 15 1020.2 - 0.0

Other Formats:

Comma delimited format used in spreadsheet applications
http://www.bom.gov.au/fwo/IDQ60801/IDQ60801.94397.axf

JavaScript Object Notation format (JSON) in row-major order
http://www.bom.gov.au/fwo/IDQ60801/IDQ60801.94397.json